createdAt,value
2022-10-17T00:01:06.963Z,16.41
2022-10-17T00:03:52.038Z,16.39
2022-10-17T00:06:37.117Z,16.41
2022-10-17T00:09:22.446Z,16.36
2022-10-17T00:12:07.476Z,16.25
2022-10-17T00:14:52.481Z,16.38
2022-10-17T00:17:38.333Z,16.25
2022-10-17T00:20:23.621Z,16.42
2022-10-17T00:23:08.924Z,16.38
2022-10-17T00:26:01.844Z,16.42
2022-10-17T00:28:51.503Z,16.42
2022-10-17T00:31:36.524Z,16.34
2022-10-17T00:34:22.059Z,16.45
2022-10-17T00:37:07.261Z,16.44
2022-10-17T00:39:52.302Z,16.49
2022-10-17T00:42:37.551Z,16.48
2022-10-17T00:45:31.005Z,16.49
2022-10-17T00:48:21.176Z,16.29
2022-10-17T00:51:08.059Z,16.48
2022-10-17T00:53:53.436Z,16.46
2022-10-17T00:56:40.369Z,16.50
2022-10-17T00:59:26.068Z,16.50
2022-10-17T01:02:15.484Z,16.44
2022-10-17T01:05:01.243Z,16.53
2022-10-17T01:07:48.559Z,16.53
2022-10-17T01:10:55.635Z,16.31
2022-10-17T01:13:59.261Z,16.49
2022-10-17T01:16:56.711Z,16.49
2022-10-17T01:19:55.492Z,16.39
2022-10-17T01:22:54.707Z,16.45
2022-10-17T01:26:00.899Z,16.45
2022-10-17T01:29:11.035Z,16.41
2022-10-17T01:32:05.991Z,16.40
2022-10-17T01:34:51.203Z,16.27
2022-10-17T01:37:50.610Z,16.35
2022-10-17T01:40:58.978Z,16.35
2022-10-17T01:43:54.682Z,16.31
2022-10-17T01:46:43.887Z,16.30
2022-10-17T01:49:31.665Z,16.30
2022-10-17T01:52:24.770Z,16.19
2022-10-17T01:55:15.089Z,16.15
2022-10-17T01:58:19.048Z,16.22
2022-10-17T02:01:07.726Z,16.17
2022-10-17T02:03:53.738Z,16.19
2022-10-17T02:06:39.168Z,16.17
2022-10-17T02:09:26.761Z,16.16
2022-10-17T02:12:27.857Z,16.16
2022-10-17T02:15:36.728Z,16.14
2022-10-17T02:18:37.850Z,16.15
2022-10-17T02:21:43.982Z,16.16
2022-10-17T02:24:54.980Z,16.15
2022-10-17T02:27:52.483Z,16.05
2022-10-17T02:30:54.919Z,16.14
2022-10-17T02:33:49.502Z,16.12
2022-10-17T02:36:45.904Z,15.95
2022-10-17T02:39:32.903Z,16.11
2022-10-17T02:42:19.886Z,16.12
2022-10-17T02:45:06.445Z,16.09
2022-10-17T02:48:02.317Z,16.09
2022-10-17T02:51:12.248Z,16.07
2022-10-17T02:54:03.186Z,16.03
2022-10-17T02:57:22.084Z,16.00
2022-10-17T03:00:11.031Z,15.98
2022-10-17T03:02:55.900Z,15.96
2022-10-17T03:05:41.210Z,15.94
2022-10-17T03:08:26.557Z,15.92
2022-10-17T03:11:11.705Z,15.90
2022-10-17T03:13:56.779Z,15.91
2022-10-17T03:16:42.007Z,15.88
2022-10-17T03:19:27.404Z,15.84
2022-10-17T03:22:12.356Z,15.86
2022-10-17T03:24:57.876Z,15.77
2022-10-17T03:27:43.041Z,15.84
2022-10-17T03:30:28.926Z,15.80
2022-10-17T03:33:13.948Z,15.79
2022-10-17T03:35:58.747Z,15.72
2022-10-17T03:38:45.021Z,15.73
2022-10-17T03:41:30.158Z,15.69
2022-10-17T03:44:15.349Z,15.72
2022-10-17T03:47:00.617Z,15.68
2022-10-17T03:49:45.660Z,15.70
2022-10-17T03:52:30.837Z,15.74
2022-10-17T03:55:16.543Z,15.65
2022-10-17T03:58:01.656Z,15.68
2022-10-17T04:00:46.652Z,15.79
2022-10-17T04:03:32.305Z,15.78
2022-10-17T04:06:17.315Z,15.77
2022-10-17T04:09:03.634Z,15.70
2022-10-17T04:11:48.953Z,15.70
2022-10-17T04:14:34.250Z,15.68
2022-10-17T04:17:19.512Z,15.71
2022-10-17T04:20:05.202Z,15.79
2022-10-17T04:22:50.126Z,15.81
2022-10-17T04:25:36.789Z,15.81
2022-10-17T04:28:28.480Z,15.79
2022-10-17T04:31:14.721Z,15.77
2022-10-17T04:33:59.999Z,15.65
2022-10-17T04:36:45.705Z,15.74
2022-10-17T04:39:30.582Z,15.72
2022-10-17T04:42:15.673Z,15.63
2022-10-17T04:45:00.537Z,15.70
2022-10-17T04:47:45.729Z,15.72
2022-10-17T04:50:31.057Z,15.73
2022-10-17T04:53:16.465Z,15.71
2022-10-17T04:56:02.159Z,15.72
2022-10-17T04:58:47.730Z,15.71
2022-10-17T05:01:33.118Z,15.73
2022-10-17T05:04:21.068Z,15.63
2022-10-17T05:07:09.298Z,15.71
2022-10-17T05:09:54.517Z,15.72
2022-10-17T05:12:39.417Z,15.63
2022-10-17T05:15:24.576Z,15.73
2022-10-17T05:18:09.938Z,15.61
2022-10-17T05:20:55.079Z,15.68
2022-10-17T05:23:40.302Z,15.71
2022-10-17T05:26:26.098Z,15.71
2022-10-17T05:29:11.599Z,15.71
2022-10-17T05:31:56.909Z,15.71
2022-10-17T05:34:42.075Z,15.69
2022-10-17T05:37:29.998Z,15.69
2022-10-17T05:40:15.392Z,15.72
2022-10-17T05:43:00.386Z,15.52
2022-10-17T05:45:45.294Z,15.70
2022-10-17T05:48:30.306Z,15.67
2022-10-17T05:51:15.444Z,15.57
2022-10-17T05:54:00.491Z,15.57
2022-10-17T05:56:45.298Z,15.61
2022-10-17T05:59:30.112Z,15.62
2022-10-17T06:02:15.009Z,15.64
2022-10-17T06:04:59.962Z,15.63
2022-10-17T06:07:45.228Z,15.62
2022-10-17T06:10:30.532Z,15.49
2022-10-17T06:13:17.095Z,15.57
2022-10-17T06:16:02.012Z,15.58
2022-10-17T06:18:46.891Z,15.49
2022-10-17T06:21:36.340Z,15.46
2022-10-17T06:24:21.446Z,15.58
2022-10-17T06:27:10.979Z,15.59
2022-10-17T06:29:57.204Z,15.62
2022-10-17T06:32:42.143Z,15.60
2022-10-17T06:35:27.114Z,15.59
2022-10-17T06:38:12.363Z,15.60
2022-10-17T06:41:04.935Z,15.58
2022-10-17T06:43:50.112Z,15.37
2022-10-17T06:46:35.080Z,15.47
2022-10-17T06:49:20.059Z,15.54
2022-10-17T06:52:05.249Z,15.55
2022-10-17T06:54:51.861Z,15.42
2022-10-17T06:57:36.878Z,15.49
2022-10-17T07:00:23.348Z,15.51
2022-10-17T07:03:08.384Z,15.52
2022-10-17T07:05:55.051Z,15.52
2022-10-17T07:08:47.121Z,15.49
2022-10-17T07:11:33.109Z,15.51
2022-10-17T07:14:18.528Z,15.38
2022-10-17T07:17:03.478Z,15.50
2022-10-17T07:19:48.915Z,15.46
2022-10-17T07:22:34.169Z,15.33
2022-10-17T07:25:19.644Z,15.33
2022-10-17T07:28:04.651Z,15.37
2022-10-17T07:30:52.072Z,15.34
2022-10-17T07:33:42.527Z,15.31
2022-10-17T07:36:27.421Z,15.28
2022-10-17T07:39:12.809Z,15.27
2022-10-17T07:41:58.798Z,15.28
2022-10-17T07:44:47.285Z,15.28
2022-10-17T07:47:35.542Z,15.24
2022-10-17T07:50:20.741Z,15.20
2022-10-17T07:53:05.700Z,15.03
2022-10-17T07:55:51.355Z,15.13
2022-10-17T07:58:37.592Z,15.14
2022-10-17T08:01:22.845Z,15.16
2022-10-17T08:04:08.147Z,15.18
2022-10-17T08:07:05.410Z,15.19
2022-10-17T08:09:56.834Z,15.21
2022-10-17T08:12:42.311Z,15.22
2022-10-17T08:15:30.937Z,15.24
2022-10-17T08:18:17.710Z,15.25
2022-10-17T08:21:06.321Z,15.30
2022-10-17T08:23:51.646Z,15.09
2022-10-17T08:26:40.584Z,15.31
2022-10-17T08:29:28.483Z,15.32
2022-10-17T08:32:13.650Z,15.25
2022-10-17T08:34:58.850Z,15.26
2022-10-17T08:37:43.904Z,15.41
2022-10-17T08:40:35.456Z,15.46
2022-10-17T08:43:42.113Z,15.49
2022-10-17T08:46:34.225Z,15.35
2022-10-17T08:49:34.297Z,15.42
2022-10-17T08:52:29.200Z,15.52
2022-10-17T08:55:41.285Z,15.50
2022-10-17T08:58:35.347Z,15.56
2022-10-17T09:01:35.043Z,15.60
2022-10-17T09:04:43.601Z,15.63
2022-10-17T09:07:45.670Z,15.64
2022-10-17T09:10:30.821Z,15.61
2022-10-17T09:13:42.147Z,15.73
2022-10-17T09:16:42.390Z,15.78
2022-10-17T09:19:38.861Z,15.84
2022-10-17T09:22:28.289Z,15.92
2022-10-17T09:25:17.347Z,15.91
2022-10-17T09:28:12.530Z,15.98
2022-10-17T09:31:07.145Z,15.97
2022-10-17T09:33:55.740Z,15.97
2022-10-17T09:36:42.400Z,16.03
2022-10-17T09:39:32.962Z,16.08
2022-10-17T09:42:23.800Z,16.12
2022-10-17T09:45:19.440Z,16.14
2022-10-17T09:48:38.429Z,16.19
2022-10-17T09:51:26.299Z,16.28
2022-10-17T09:54:27.520Z,16.22
2022-10-17T09:57:14.894Z,16.06
2022-10-17T10:00:03.936Z,16.31
2022-10-17T10:02:49.557Z,16.31
2022-10-17T10:05:34.470Z,16.33
2022-10-17T10:08:19.886Z,16.49
2022-10-17T10:11:13.504Z,16.61
2022-10-17T10:14:12.190Z,16.78
2022-10-17T10:16:57.089Z,16.78
2022-10-17T10:19:50.472Z,16.83
2022-10-17T10:22:35.456Z,16.85
2022-10-17T10:25:20.651Z,16.95
2022-10-17T10:28:12.220Z,16.94
2022-10-17T10:31:00.287Z,17.01
2022-10-17T10:33:49.466Z,17.17
2022-10-17T10:36:58.094Z,17.28
2022-10-17T10:39:47.588Z,17.38
2022-10-17T10:42:36.970Z,17.50
2022-10-17T10:45:47.934Z,17.56
2022-10-17T10:48:37.002Z,17.59
2022-10-17T10:51:49.366Z,17.52
2022-10-17T10:54:43.783Z,17.39
2022-10-17T10:57:33.370Z,17.42
2022-10-17T11:00:26.005Z,17.29
2022-10-17T11:03:21.790Z,17.27
2022-10-17T11:06:18.981Z,17.09
2022-10-17T11:09:28.846Z,17.03
2022-10-17T11:12:39.379Z,17.33
2022-10-17T11:15:42.990Z,17.51
2022-10-17T11:19:08.313Z,17.73
2022-10-17T11:22:13.259Z,17.83
2022-10-17T11:25:04.200Z,17.86
2022-10-17T11:27:49.418Z,17.94
2022-10-17T11:31:07.189Z,18.02
2022-10-17T11:34:06.186Z,18.11
2022-10-17T11:36:56.859Z,18.05
2022-10-17T11:40:17.088Z,18.36
2022-10-17T11:43:10.924Z,18.46
2022-10-17T11:46:01.323Z,18.67
2022-10-17T11:48:59.761Z,18.71
2022-10-17T11:52:01.957Z,18.76
2022-10-17T11:54:54.627Z,18.77
2022-10-17T11:58:22.964Z,18.81
2022-10-17T12:01:29.217Z,19.04
2022-10-17T12:04:49.377Z,19.20
2022-10-17T12:07:58.029Z,19.14
2022-10-17T12:10:57.250Z,18.93
2022-10-17T12:13:51.722Z,19.03
2022-10-17T12:16:38.165Z,18.94
2022-10-17T12:19:25.383Z,18.93
2022-10-17T12:22:25.926Z,18.78
2022-10-17T12:25:21.720Z,18.59
2022-10-17T12:28:06.900Z,18.51
2022-10-17T12:30:58.854Z,18.41
2022-10-17T12:34:17.655Z,18.32
2022-10-17T12:37:02.800Z,18.23
2022-10-17T12:39:47.946Z,18.14
2022-10-17T12:42:44.687Z,18.12
2022-10-17T12:45:56.856Z,18.29
2022-10-17T12:48:41.913Z,18.46
2022-10-17T12:51:35.613Z,18.70
2022-10-17T12:54:21.827Z,18.72
2022-10-17T12:57:19.080Z,18.84
2022-10-17T13:00:36.649Z,18.99
2022-10-17T13:03:26.000Z,19.03
2022-10-17T13:06:22.005Z,19.22
2022-10-17T13:09:38.558Z,19.14
2022-10-17T13:12:27.451Z,19.10
2022-10-17T13:15:18.903Z,19.04
2022-10-17T13:18:04.124Z,19.16
2022-10-17T13:21:16.114Z,19.30
2022-10-17T13:24:01.402Z,19.37
2022-10-17T13:26:46.926Z,19.10
2022-10-17T13:29:32.943Z,18.98
2022-10-17T13:32:18.251Z,18.80
2022-10-17T13:35:07.926Z,18.71
2022-10-17T13:37:54.251Z,18.47
2022-10-17T13:40:49.954Z,18.52
2022-10-17T13:43:35.587Z,18.54
2022-10-17T13:46:37.287Z,18.81
2022-10-17T13:49:32.407Z,19.02
2022-10-17T13:52:24.802Z,19.12
2022-10-17T13:55:17.480Z,19.16
2022-10-17T13:58:17.219Z,18.91
2022-10-17T14:01:03.052Z,18.86
2022-10-17T14:03:52.346Z,18.76
2022-10-17T14:06:49.612Z,18.79
2022-10-17T14:09:36.300Z,18.69
2022-10-17T14:12:22.423Z,18.69
2022-10-17T14:15:13.134Z,18.91
2022-10-17T14:18:06.753Z,18.86
2022-10-17T14:24:23.732Z,19.18
2022-10-17T14:27:30.862Z,19.25
2022-10-17T14:30:56.918Z,19.02
2022-10-17T14:33:50.494Z,18.87
2022-10-17T14:36:42.013Z,18.76
2022-10-17T14:39:29.234Z,18.79
2022-10-17T14:42:22.707Z,18.69
2022-10-17T14:45:13.460Z,18.58
2022-10-17T14:48:10.433Z,18.49
2022-10-17T14:51:09.565Z,18.38
2022-10-17T14:54:24.481Z,18.43
2022-10-17T14:57:28.707Z,18.26
2022-10-17T15:00:16.182Z,18.48
2022-10-17T15:03:01.462Z,18.46
2022-10-17T15:05:47.947Z,18.19
2022-10-17T15:08:33.422Z,18.24
2022-10-17T15:11:18.206Z,18.19
2022-10-17T15:14:03.217Z,18.13
2022-10-17T15:16:48.249Z,18.10
2022-10-17T15:19:33.166Z,18.67
2022-10-17T15:22:18.398Z,18.91
2022-10-17T15:25:03.680Z,18.50
2022-10-17T15:27:48.813Z,18.24
2022-10-17T15:30:36.365Z,18.05
2022-10-17T15:33:21.498Z,17.96
2022-10-17T15:36:20.534Z,17.94
2022-10-17T15:39:05.926Z,17.75
2022-10-17T15:41:51.125Z,17.79
2022-10-17T15:44:36.647Z,17.64
2022-10-17T15:47:34.183Z,17.60
2022-10-17T15:50:20.148Z,17.53
2022-10-17T15:53:05.731Z,17.47
2022-10-17T15:55:51.029Z,17.46
2022-10-17T15:58:40.173Z,17.51
2022-10-17T16:01:29.533Z,17.40
2022-10-17T16:04:15.853Z,17.26
2022-10-17T16:07:00.687Z,17.15
2022-10-17T16:09:46.259Z,17.06
2022-10-17T16:12:36.855Z,17.01
2022-10-17T16:15:23.062Z,16.92
2022-10-17T16:18:10.063Z,16.75
2022-10-17T16:20:55.043Z,16.83
2022-10-17T16:23:40.802Z,16.80
2022-10-17T16:26:27.046Z,16.67
2022-10-17T16:29:12.193Z,16.65
2022-10-17T16:31:57.231Z,16.56
2022-10-17T16:34:42.544Z,16.54
2022-10-17T16:37:27.538Z,16.52
2022-10-17T16:40:13.775Z,16.44
2022-10-17T16:42:58.653Z,16.42
2022-10-17T16:45:43.577Z,16.32
2022-10-17T16:48:29.752Z,16.29
2022-10-17T16:51:18.018Z,16.18
2022-10-17T16:54:04.576Z,16.03
2022-10-17T16:56:50.367Z,16.09
2022-10-17T16:59:35.384Z,16.04
2022-10-17T17:02:21.371Z,16.02
2022-10-17T17:05:07.246Z,16.00
2022-10-17T17:07:52.672Z,16.12
2022-10-17T17:10:38.131Z,16.00
2022-10-17T17:13:23.262Z,15.76
2022-10-17T17:16:18.157Z,15.77
2022-10-17T17:19:10.262Z,15.70
2022-10-17T17:21:55.602Z,15.65
2022-10-17T17:24:41.006Z,15.60
2022-10-17T17:27:28.655Z,15.51
2022-10-17T17:30:14.223Z,15.48
2022-10-17T17:33:00.449Z,15.43
2022-10-17T17:35:45.650Z,15.39
2022-10-17T17:38:33.034Z,15.46
2022-10-17T17:41:19.909Z,15.40
2022-10-17T17:44:05.398Z,15.38
2022-10-17T17:46:50.679Z,15.28
2022-10-17T17:49:35.661Z,15.28
2022-10-17T17:52:20.807Z,15.25
2022-10-17T17:55:06.602Z,15.22
2022-10-17T17:57:51.460Z,15.16
2022-10-17T18:00:36.497Z,15.15
2022-10-17T18:03:21.705Z,14.98
2022-10-17T18:06:08.112Z,15.06
2022-10-17T18:08:57.906Z,14.88
2022-10-17T18:11:43.093Z,14.99
2022-10-17T18:14:28.138Z,14.96
2022-10-17T18:17:13.069Z,14.76
2022-10-17T18:19:57.993Z,14.93
2022-10-17T18:22:43.059Z,14.88
2022-10-17T18:25:28.299Z,14.86
2022-10-17T18:28:13.293Z,14.81
2022-10-17T18:31:11.660Z,14.83
2022-10-17T18:34:00.034Z,14.78
2022-10-17T18:36:44.937Z,14.76
2022-10-17T18:39:30.390Z,14.71
2022-10-17T18:42:15.343Z,14.58
2022-10-17T18:45:00.771Z,14.34
2022-10-17T18:47:47.340Z,14.37
2022-10-17T18:50:32.506Z,14.34
2022-10-17T18:53:17.408Z,14.28
2022-10-17T18:56:03.354Z,14.20
2022-10-17T18:58:48.401Z,14.25
2022-10-17T19:01:34.048Z,14.20
2022-10-17T19:04:18.946Z,14.20
2022-10-17T19:07:04.352Z,14.05
2022-10-17T19:09:49.532Z,13.95
2022-10-17T19:12:34.685Z,13.95
2022-10-17T19:15:22.502Z,14.05
2022-10-17T19:18:10.962Z,13.92
2022-10-17T19:21:01.849Z,13.99
2022-10-17T19:23:55.970Z,14.00
2022-10-17T19:26:42.671Z,13.90
2022-10-17T19:29:31.052Z,13.88
2022-10-17T19:32:18.102Z,13.67
2022-10-17T19:35:06.503Z,13.67
2022-10-17T19:37:51.537Z,13.65
2022-10-17T19:40:40.691Z,13.66
2022-10-17T19:43:26.107Z,13.63
2022-10-17T19:46:16.180Z,13.44
2022-10-17T19:49:01.882Z,13.38
2022-10-17T19:51:47.198Z,13.37
2022-10-17T19:54:32.558Z,13.32
2022-10-17T19:57:17.683Z,13.25
2022-10-17T20:00:02.987Z,13.19
2022-10-17T20:02:48.199Z,13.24
2022-10-17T20:05:33.053Z,13.20
2022-10-17T20:08:18.542Z,13.24
2022-10-17T20:11:24.683Z,13.19
2022-10-17T20:14:09.988Z,13.10
2022-10-17T20:16:55.513Z,13.10
2022-10-17T20:19:40.744Z,13.06
2022-10-17T20:22:25.689Z,13.11
2022-10-17T20:25:10.755Z,13.05
2022-10-17T20:27:55.926Z,13.03
2022-10-17T20:30:46.072Z,12.99
2022-10-17T20:33:32.043Z,12.97
2022-10-17T20:36:20.120Z,12.90
2022-10-17T20:39:07.131Z,12.84
2022-10-17T20:41:52.541Z,12.72
2022-10-17T20:44:37.714Z,12.69
2022-10-17T20:47:44.185Z,12.69
2022-10-17T20:50:37.242Z,12.78
2022-10-17T20:53:36.426Z,12.73
2022-10-17T20:56:25.655Z,12.59
2022-10-17T20:59:13.530Z,12.51
2022-10-17T21:01:58.869Z,12.56
2022-10-17T21:04:46.762Z,12.56
2022-10-17T21:07:32.295Z,12.34
2022-10-17T21:10:35.098Z,12.51
2022-10-17T21:13:21.067Z,12.32
2022-10-17T21:16:11.608Z,12.32
2022-10-17T21:18:57.831Z,12.22
2022-10-17T21:21:45.599Z,12.14
2022-10-17T21:24:31.466Z,12.13
2022-10-17T21:27:18.499Z,12.08
2022-10-17T21:30:04.307Z,12.00
2022-10-17T21:32:53.698Z,11.84
2022-10-17T21:35:38.886Z,11.96
2022-10-17T21:38:23.806Z,11.93
2022-10-17T21:41:10.266Z,11.84
2022-10-17T21:44:00.843Z,11.77
2022-10-17T21:46:46.629Z,11.69
2022-10-17T21:49:31.751Z,11.73
2022-10-17T21:52:16.898Z,11.82
2022-10-17T21:55:01.787Z,11.75
2022-10-17T21:57:46.667Z,11.62
2022-10-17T22:00:32.094Z,11.59
2022-10-17T22:03:17.411Z,11.45
2022-10-17T22:06:12.694Z,11.33
2022-10-17T22:09:20.449Z,11.27
2022-10-17T22:12:05.414Z,11.36
2022-10-17T22:14:50.639Z,11.37
2022-10-17T22:17:35.413Z,11.34
2022-10-17T22:20:20.514Z,11.27
2022-10-17T22:23:05.442Z,11.39
2022-10-17T22:25:54.752Z,11.20
2022-10-17T22:28:41.223Z,11.04
2022-10-17T22:31:26.346Z,11.03
2022-10-17T22:34:14.142Z,10.96
2022-10-17T22:36:59.330Z,10.87
2022-10-17T22:39:44.418Z,10.77
2022-10-17T22:42:31.518Z,10.77
2022-10-17T22:45:16.822Z,10.85
2022-10-17T22:48:01.653Z,10.84
2022-10-17T22:50:48.807Z,10.72
2022-10-17T22:53:35.080Z,10.71
2022-10-17T22:56:20.798Z,10.73
2022-10-17T22:59:05.926Z,10.76
2022-10-17T23:01:51.036Z,10.75
2022-10-17T23:04:35.789Z,10.76
2022-10-17T23:07:21.165Z,10.84
2022-10-17T23:10:06.762Z,10.88
2022-10-17T23:12:51.792Z,10.79
2022-10-17T23:15:37.016Z,10.62
2022-10-17T23:18:23.142Z,10.46
2022-10-17T23:21:08.454Z,10.44
2022-10-17T23:23:53.244Z,10.38
2022-10-17T23:26:38.254Z,10.31
2022-10-17T23:29:24.268Z,10.22
2022-10-17T23:32:09.345Z,10.11
2022-10-17T23:34:54.231Z,10.15
2022-10-17T23:37:39.185Z,10.07
2022-10-17T23:40:24.112Z,10.10
2022-10-17T23:43:09.417Z,10.13
2022-10-17T23:45:54.418Z,10.11
2022-10-17T23:48:42.664Z,10.14
2022-10-17T23:51:27.859Z,10.16
2022-10-17T23:54:12.867Z,10.07
2022-10-17T23:56:57.938Z,9.99
2022-10-17T23:59:43.251Z,9.88
